Time;durP1;ratioP1;P1;durP2;ratioP2;P2;SDS_P1;SDS_P2;PMS_P1;PMS_P2;Temp;Humidity;BMP_temperature;BMP_pressure;BME280_temperature;BME280_humidity;BME280_pressure;Samples;Min_cycle;Max_cycle;Signal;HPM_P1;HPM_P2
2021/09/25 00:00:40;;;;;;;19.58;15.05;;;;;;;17.99;100.00;100644.88;5044710;28;20223;-77
2021/09/25 00:03:05;;;;;;;19.88;15.90;;;;;;;18.13;100.00;100638.09;5051235;28;20570;-78
2021/09/25 00:05:37;;;;;;;18.80;16.00;;;;;;;18.17;100.00;100642.66;5022129;28;20743;-77
2021/09/25 00:08:04;;;;;;;17.25;15.10;;;;;;;18.06;100.00;100642.44;4997494;28;20200;-76
2021/09/25 00:10:29;;;;;;;17.70;15.90;;;;;;;18.05;100.00;100640.84;5024406;28;20215;-76
2021/09/25 00:12:58;;;;;;;18.33;14.63;;;;;;;18.05;100.00;100646.34;5034877;28;20175;-77
2021/09/25 00:15:24;;;;;;;19.38;14.60;;;;;;;17.83;100.00;100643.69;5044591;28;20287;-77
2021/09/25 00:17:50;;;;;;;16.77;14.90;;;;;;;17.84;100.00;100650.81;4983894;28;20192;-77
2021/09/25 00:20:20;;;;;;;16.50;14.85;;;;;;;17.97;100.00;100644.38;5022965;28;20260;-75
2021/09/25 00:22:46;;;;;;;18.75;15.10;;;;;;;18.01;100.00;100645.38;5053271;28;20271;-76
2021/09/25 00:25:11;;;;;;;16.35;14.35;;;;;;;18.03;100.00;100643.91;5012119;28;20264;-77
2021/09/25 00:27:37;;;;;;;18.15;14.73;;;;;;;17.99;100.00;100647.63;5030264;28;20379;-77
2021/09/25 00:30:09;;;;;;;17.10;15.02;;;;;;;18.06;100.00;100640.53;5033238;28;20180;-76
2021/09/25 00:32:37;;;;;;;16.83;14.25;;;;;;;17.98;100.00;100646.00;5034084;28;20176;-77
2021/09/25 00:35:03;;;;;;;17.20;15.38;;;;;;;17.99;100.00;100642.94;5013878;28;20571;-77
2021/09/25 00:37:33;;;;;;;16.85;13.95;;;;;;;17.94;100.00;100636.78;5012965;28;20232;-77
2021/09/25 00:40:02;;;;;;;18.08;14.20;;;;;;;17.91;100.00;100640.16;4984545;28;20229;-77
2021/09/25 00:42:28;;;;;;;17.48;15.05;;;;;;;17.90;100.00;100644.03;5033656;28;20215;-76
2021/09/25 00:44:53;;;;;;;16.88;14.27;;;;;;;17.80;100.00;100627.84;5015894;28;20206;-77
2021/09/25 00:47:19;;;;;;;17.55;14.25;;;;;;;17.90;100.00;100638.56;5028930;28;20232;-77
2021/09/25 00:49:51;;;;;;;18.48;13.98;;;;;;;17.82;100.00;100636.59;5013793;28;20181;-77
2021/09/25 00:52:17;;;;;;;20.10;14.45;;;;;;;17.63;100.00;100638.78;5049889;28;20220;-76
2021/09/25 00:54:43;;;;;;;20.20;14.38;;;;;;;17.64;100.00;100640.44;5032974;28;20230;-77
2021/09/25 00:57:10;;;;;;;16.95;13.95;;;;;;;17.61;100.00;100634.75;4998198;28;20247;-77
2021/09/25 00:59:36;;;;;;;16.17;14.57;;;;;;;17.71;100.00;100635.28;4998128;28;20189;-76
2021/09/25 01:02:04;;;;;;;20.85;15.20;;;;;;;17.71;100.00;100640.78;5031868;28;20702;-78
2021/09/25 01:04:34;;;;;;;16.38;14.48;;;;;;;17.67;100.00;100637.03;5054367;28;20181;-76
2021/09/25 01:07:00;;;;;;;18.50;15.30;;;;;;;17.72;100.00;100636.88;5017224;28;20625;-77
2021/09/25 01:09:28;;;;;;;19.58;14.90;;;;;;;17.64;100.00;100643.16;5000508;28;20187;-77
2021/09/25 01:11:58;;;;;;;18.80;15.18;;;;;;;17.55;100.00;100652.50;5001148;28;20216;-77
2021/09/25 01:14:23;;;;;;;17.58;14.88;;;;;;;17.67;100.00;100650.75;5017684;28;20205;-77
2021/09/25 01:16:51;;;;;;;20.08;15.75;;;;;;;17.65;100.00;100650.28;5001105;28;20243;-77
2021/09/25 01:19:19;;;;;;;17.02;14.68;;;;;;;17.60;100.00;100652.34;5017897;28;20180;-77
2021/09/25 01:21:47;;;;;;;18.67;15.00;;;;;;;17.60;100.00;100653.19;5044048;28;20219;-77
2021/09/25 01:24:13;;;;;;;18.73;15.48;;;;;;;17.62;100.00;100645.44;5036832;28;20199;-77
2021/09/25 01:26:40;;;;;;;19.13;15.10;;;;;;;17.60;100.00;100653.19;5026104;28;20216;-77
2021/09/25 01:29:06;;;;;;;19.42;16.17;;;;;;;17.60;100.00;100655.94;4999774;28;20193;-76
2021/09/25 01:31:32;;;;;;;16.85;15.00;;;;;;;17.61;100.00;100646.53;5023318;28;20237;-76
2021/09/25 01:33:57;;;;;;;19.40;15.60;;;;;;;17.58;100.00;100647.19;5035947;28;20236;-77
2021/09/25 01:36:25;;;;;;;18.08;15.20;;;;;;;17.56;100.00;100648.63;5028950;28;20238;-77
2021/09/25 01:38:53;;;;;;;20.33;16.02;;;;;;;17.66;100.00;100648.34;5032505;28;20717;-77
2021/09/25 01:41:19;;;;;;;18.25;15.65;;;;;;;17.65;100.00;100650.28;5036137;28;20211;-77
2021/09/25 01:43:44;;;;;;;17.20;15.23;;;;;;;17.56;100.00;100654.91;5035853;28;20180;-77
2021/09/25 01:46:20;;;;;;;18.50;15.30;;;;;;;17.57;100.00;100650.25;5048251;28;20767;-75
2021/09/25 01:48:45;;;;;;;17.73;15.13;;;;;;;17.65;100.00;100646.72;5032399;28;20230;-77
2021/09/25 01:51:12;;;;;;;18.45;15.82;;;;;;;17.70;100.00;100650.13;5017138;28;20208;-77
2021/09/25 01:53:41;;;;;;;19.75;15.75;;;;;;;17.69;100.00;100653.19;5036696;28;20190;-77
2021/09/25 01:56:12;;;;;;;20.48;15.68;;;;;;;17.85;100.00;100660.69;5033738;28;20609;-77
2021/09/25 01:58:41;;;;;;;17.85;15.00;;;;;;;17.75;100.00;100658.25;5016503;28;20230;-77
2021/09/25 02:01:09;;;;;;;18.30;14.68;;;;;;;17.78;100.00;100660.31;5015709;28;20216;-76
2021/09/25 02:03:37;;;;;;;17.15;14.98;;;;;;;17.75;100.00;100663.72;5032103;28;20263;-77
2021/09/25 02:06:06;;;;;;;16.17;14.32;;;;;;;17.65;100.00;100663.22;5016794;28;20247;-77
2021/09/25 02:08:37;;;;;;;23.60;15.40;;;;;;;17.56;100.00;100665.91;5052271;28;20333;-76
2021/09/25 02:11:05;;;;;;;16.95;14.07;;;;;;;17.72;100.00;100667.09;5023355;28;20216;-76
2021/09/25 02:13:31;;;;;;;19.60;14.10;;;;;;;17.57;100.00;100664.78;5036103;28;20242;-77
2021/09/25 02:15:59;;;;;;;16.63;14.50;;;;;;;17.61;100.00;100674.03;4984097;28;20227;-77
2021/09/25 02:18:26;;;;;;;16.65;14.13;;;;;;;17.61;100.00;100668.53;5000383;28;20708;-78
2021/09/25 02:20:52;;;;;;;15.27;13.40;;;;;;;17.62;100.00;100661.09;5015978;28;20220;-77
2021/09/25 02:23:22;;;;;;;18.63;14.07;;;;;;;17.58;100.00;100666.44;5015512;28;20207;-77
2021/09/25 02:25:50;;;;;;;16.48;13.38;;;;;;;17.55;100.00;100664.31;5018362;28;20226;-76
2021/09/25 02:28:18;;;;;;;16.42;12.88;;;;;;;17.60;100.00;100666.91;5002456;28;20204;-76
2021/09/25 02:30:45;;;;;;;19.13;12.77;;;;;;;17.70;100.00;100666.63;5012910;28;20212;-77
2021/09/25 02:33:11;;;;;;;16.38;12.38;;;;;;;17.59;100.00;100662.53;5027619;28;20184;-77
2021/09/25 02:35:37;;;;;;;16.75;11.98;;;;;;;17.60;100.00;100664.16;5033926;28;20795;-76
2021/09/25 02:38:05;;;;;;;16.35;12.10;;;;;;;17.59;100.00;100661.75;5023505;28;20219;-76
2021/09/25 02:40:31;;;;;;;13.63;11.57;;;;;;;17.63;100.00;100660.78;4998114;28;20215;-77
2021/09/25 02:42:57;;;;;;;13.38;11.98;;;;;;;17.50;100.00;100667.19;5040890;28;20233;-76
2021/09/25 02:45:22;;;;;;;14.70;11.48;;;;;;;17.56;100.00;100670.59;5033803;28;20214;-77
2021/09/25 02:47:48;;;;;;;14.70;11.55;;;;;;;17.60;100.00;100666.09;5026752;28;20261;-76
2021/09/25 02:50:15;;;;;;;14.35;11.57;;;;;;;17.50;100.00;100672.69;4998046;28;20187;-77
2021/09/25 02:52:40;;;;;;;14.68;11.05;;;;;;;17.41;100.00;100666.34;5020125;28;20179;-78
2021/09/25 02:55:07;;;;;;;13.60;11.25;;;;;;;17.43;100.00;100671.50;5050795;28;20262;-76
2021/09/25 02:57:37;;;;;;;14.32;10.88;;;;;;;17.48;100.00;100661.19;5017389;28;20211;-77
2021/09/25 03:00:05;;;;;;;17.02;11.38;;;;;;;17.38;100.00;100668.94;5017892;28;20282;-76
2021/09/25 03:02:33;;;;;;;16.98;10.82;;;;;;;17.39;100.00;100670.53;5014006;28;20349;-76
2021/09/25 03:04:58;;;;;;;13.15;11.52;;;;;;;17.39;100.00;100665.84;5014876;28;20611;-77
2021/09/25 03:07:24;;;;;;;13.55;12.13;;;;;;;17.28;100.00;100671.94;5031247;28;20228;-77
2021/09/25 03:09:50;;;;;;;13.63;11.25;;;;;;;17.33;100.00;100674.56;5034541;28;20689;-77
2021/09/25 03:12:15;;;;;;;15.98;11.70;;;;;;;17.29;100.00;100665.34;5033289;28;20215;-76
2021/09/25 03:14:41;;;;;;;14.60;11.77;;;;;;;17.29;100.00;100672.72;4997808;28;20219;-76
2021/09/25 03:17:09;;;;;;;14.15;12.35;;;;;;;17.29;100.00;100675.47;5029690;28;20234;-77
2021/09/25 03:19:35;;;;;;;15.27;12.57;;;;;;;17.42;100.00;100670.72;5015340;28;20226;-76
2021/09/25 03:22:00;;;;;;;16.75;13.13;;;;;;;17.11;100.00;100673.75;5049977;28;20259;-76
2021/09/25 03:24:31;;;;;;;16.70;13.55;;;;;;;17.19;100.00;100660.09;5000629;28;20243;-75
2021/09/25 03:26:57;;;;;;;16.38;13.48;;;;;;;17.25;100.00;100669.84;4996738;28;20263;-76
2021/09/25 03:29:24;;;;;;;18.42;13.60;;;;;;;17.26;100.00;100665.16;5045187;28;20653;-75
2021/09/25 03:31:50;;;;;;;16.35;13.50;;;;;;;17.23;100.00;100669.31;5049920;28;20773;-77
2021/09/25 03:34:16;;;;;;;16.27;14.10;;;;;;;17.28;100.00;100668.38;5020218;28;20200;-77
2021/09/25 03:36:42;;;;;;;18.13;13.90;;;;;;;17.13;100.00;100671.50;5029318;28;20227;-78
2021/09/25 03:39:12;;;;;;;16.77;13.68;;;;;;;17.13;100.00;100669.56;5026692;28;20359;-75
2021/09/25 03:41:38;;;;;;;15.63;13.68;;;;;;;17.09;100.00;100676.00;5033221;28;20715;-76
2021/09/25 03:44:04;;;;;;;19.95;13.80;;;;;;;17.08;100.00;100672.44;5023126;28;20195;-77
2021/09/25 03:46:29;;;;;;;16.40;14.43;;;;;;;17.06;100.00;100665.66;5028892;28;20224;-77
2021/09/25 03:48:55;;;;;;;18.08;14.30;;;;;;;17.14;100.00;100675.84;5038812;28;20180;-76
2021/09/25 03:51:22;;;;;;;16.80;14.30;;;;;;;17.18;100.00;100674.13;5016322;28;20215;-77
2021/09/25 03:53:48;;;;;;;19.52;14.93;;;;;;;17.25;100.00;100680.81;5010050;28;20230;-78
2021/09/25 03:56:16;;;;;;;21.27;15.32;;;;;;;17.19;100.00;100670.28;4996176;28;20646;-76
2021/09/25 03:58:43;;;;;;;17.60;14.82;;;;;;;17.16;100.00;100677.22;5019188;28;20191;-77
2021/09/25 04:01:12;;;;;;;18.20;14.40;;;;;;;17.18;100.00;100668.63;5032797;28;20231;-77
2021/09/25 04:03:40;;;;;;;19.20;14.52;;;;;;;17.13;100.00;100666.00;4996208;28;20173;-76
2021/09/25 04:06:08;;;;;;;17.58;14.63;;;;;;;17.22;100.00;100675.16;5029288;28;20669;-77
2021/09/25 04:08:33;;;;;;;19.10;14.77;;;;;;;17.07;100.00;100670.03;5000103;28;20203;-76
2021/09/25 04:11:01;;;;;;;19.88;15.48;;;;;;;17.23;100.00;100677.56;5017209;28;20290;-77
2021/09/25 04:13:27;;;;;;;17.70;15.02;;;;;;;17.20;100.00;100677.41;5032610;28;20687;-77
2021/09/25 04:15:52;;;;;;;19.90;15.40;;;;;;;17.26;100.00;100676.13;4996990;28;20228;-78
2021/09/25 04:18:20;;;;;;;20.33;15.38;;;;;;;17.20;100.00;100677.41;4997500;28;20211;-77
2021/09/25 04:20:48;;;;;;;19.88;15.55;;;;;;;17.27;100.00;100675.00;5014014;28;20759;-78
2021/09/25 04:23:14;;;;;;;19.10;15.75;;;;;;;17.17;100.00;100684.31;5014338;28;20259;-77
2021/09/25 04:25:41;;;;;;;18.52;15.93;;;;;;;17.10;100.00;100688.59;5011709;28;20215;-78
2021/09/25 04:28:09;;;;;;;19.88;15.98;;;;;;;17.12;100.00;100675.34;4997098;28;20208;-76
2021/09/25 04:30:42;;;;;;;18.08;14.82;;;;;;;17.20;100.00;100682.88;5008428;28;20247;-77
2021/09/25 04:33:10;;;;;;;22.88;16.00;;;;;;;17.24;100.00;100672.91;5014117;28;20231;-77
2021/09/25 04:35:36;;;;;;;22.13;16.60;;;;;;;17.12;100.00;100686.34;5028877;28;20230;-75
2021/09/25 04:38:02;;;;;;;24.77;17.15;;;;;;;17.24;100.00;100675.63;5037056;28;20200;-77
2021/09/25 04:40:29;;;;;;;22.13;16.75;;;;;;;17.35;100.00;100683.28;5021724;28;20223;-76
2021/09/25 04:42:56;;;;;;;23.05;17.30;;;;;;;17.20;100.00;100683.69;5033766;28;20180;-76
2021/09/25 04:45:21;;;;;;;24.80;17.90;;;;;;;17.18;100.00;100679.63;5029611;28;20206;-76
2021/09/25 04:47:47;;;;;;;21.55;17.17;;;;;;;17.21;100.00;100679.00;5036815;28;20672;-77
2021/09/25 04:50:17;;;;;;;21.52;16.95;;;;;;;17.36;100.00;100688.47;5041810;28;20180;-76
2021/09/25 04:52:47;;;;;;;22.42;17.80;;;;;;;17.27;100.00;100678.56;5018376;28;20590;-76
2021/09/25 04:55:15;;;;;;;23.25;16.92;;;;;;;17.05;100.00;100685.97;4994885;28;20207;-75
2021/09/25 04:57:43;;;;;;;23.35;16.95;;;;;;;17.18;100.00;100685.09;5021129;28;20230;-76
2021/09/25 05:00:09;;;;;;;21.88;17.25;;;;;;;17.30;100.00;100685.34;5028204;28;20175;-77
2021/09/25 05:02:37;;;;;;;23.33;18.02;;;;;;;17.36;100.00;100677.47;5036760;28;20188;-76
2021/09/25 05:05:09;;;;;;;24.95;18.42;;;;;;;17.27;100.00;100694.22;5021060;28;20210;-76
2021/09/25 05:07:39;;;;;;;20.88;17.70;;;;;;;17.27;100.00;100699.69;5054016;28;20257;-77
2021/09/25 05:10:05;;;;;;;25.05;17.92;;;;;;;17.34;100.00;100698.97;5020105;28;20199;-76
2021/09/25 05:12:33;;;;;;;23.35;18.02;;;;;;;17.18;100.00;100701.59;5053847;28;20560;-75
2021/09/25 05:14:58;;;;;;;23.63;18.48;;;;;;;17.22;100.00;100699.84;5015274;28;20189;-75
2021/09/25 05:17:26;;;;;;;27.23;18.38;;;;;;;17.22;100.00;100708.09;5016887;28;20236;-76
2021/09/25 05:19:51;;;;;;;27.83;17.60;;;;;;;17.26;100.00;100700.84;4989444;28;20195;-76
2021/09/25 05:22:18;;;;;;;26.33;18.38;;;;;;;17.35;100.00;100708.00;5053594;28;20224;-77
2021/09/25 05:24:45;;;;;;;22.52;18.38;;;;;;;17.29;100.00;100700.19;5053322;28;20202;-75
2021/09/25 05:27:12;;;;;;;24.73;18.05;;;;;;;17.22;100.00;100711.63;5032796;28;20311;-75
2021/09/25 05:29:38;;;;;;;22.42;17.65;;;;;;;17.20;100.00;100715.84;5001158;28;20181;-75
2021/09/25 05:32:08;;;;;;;23.48;17.80;;;;;;;17.24;100.00;100705.84;5019971;28;20680;-75
2021/09/25 05:34:33;;;;;;;24.27;17.83;;;;;;;17.13;100.00;100709.94;5004600;28;20211;-75
2021/09/25 05:36:59;;;;;;;23.92;17.63;;;;;;;17.26;100.00;100714.56;5014229;28;20210;-76
2021/09/25 05:39:27;;;;;;;22.20;17.70;;;;;;;17.35;100.00;100717.03;5016744;28;20199;-75
2021/09/25 05:41:55;;;;;;;22.92;17.55;;;;;;;17.33;100.00;100715.75;5036243;28;20208;-75
2021/09/25 05:44:25;;;;;;;24.42;17.65;;;;;;;17.38;100.00;100723.84;5037883;28;20250;-74
2021/09/25 05:46:51;;;;;;;21.52;17.38;;;;;;;17.36;100.00;100726.91;5016992;28;20267;-76
2021/09/25 05:49:17;;;;;;;24.95;17.38;;;;;;;17.38;100.00;100721.91;5017782;28;20204;-76
2021/09/25 05:51:47;;;;;;;20.92;16.95;;;;;;;17.37;100.00;100727.72;5016556;28;20215;-75
2021/09/25 05:54:15;;;;;;;26.85;17.88;;;;;;;17.29;100.00;100739.47;5038144;28;20188;-76
2021/09/25 05:56:40;;;;;;;21.85;17.02;;;;;;;17.33;100.00;100726.72;5006577;28;20239;-74
2021/09/25 05:59:08;;;;;;;22.40;17.02;;;;;;;17.28;100.00;100734.28;5035973;28;20711;-75
2021/09/25 06:01:36;;;;;;;22.33;17.10;;;;;;;17.37;100.00;100734.00;4997302;28;20234;-75
2021/09/25 06:04:02;;;;;;;24.17;16.92;;;;;;;17.41;100.00;100734.19;5054667;28;20180;-75
2021/09/25 06:06:28;;;;;;;26.45;17.70;;;;;;;17.44;100.00;100739.06;4992055;28;20227;-75
2021/09/25 06:08:56;;;;;;;24.33;17.00;;;;;;;17.48;100.00;100726.31;5034939;28;20184;-76
2021/09/25 06:11:21;;;;;;;22.05;16.25;;;;;;;17.51;100.00;100734.75;5009920;28;20273;-76
2021/09/25 06:13:47;;;;;;;25.00;16.85;;;;;;;17.56;100.00;100742.84;5038279;28;20187;-76
2021/09/25 06:16:13;;;;;;;21.17;16.35;;;;;;;17.44;100.00;100745.38;5045395;28;20224;-74
2021/09/25 06:18:41;;;;;;;22.35;16.48;;;;;;;17.46;100.00;100736.81;5017487;28;20196;-76
2021/09/25 06:21:09;;;;;;;24.00;16.50;;;;;;;17.55;100.00;100743.16;5024180;28;20208;-75
2021/09/25 06:23:35;;;;;;;20.35;16.50;;;;;;;17.40;100.00;100738.88;5004041;28;20644;-75
2021/09/25 06:26:03;;;;;;;20.75;15.82;;;;;;;17.55;100.00;100749.47;5014446;28;20215;-75
2021/09/25 06:28:29;;;;;;;21.15;15.48;;;;;;;17.66;100.00;100747.28;5017383;28;20196;-73
2021/09/25 06:30:57;;;;;;;21.90;16.13;;;;;;;17.45;100.00;100744.25;5045393;28;20217;-74
2021/09/25 06:33:23;;;;;;;20.98;16.02;;;;;;;17.56;100.00;100753.81;5019867;28;20180;-75
2021/09/25 06:35:53;;;;;;;24.05;15.43;;;;;;;17.58;100.00;100761.75;5016228;28;20227;-77
2021/09/25 06:38:19;;;;;;;21.80;16.00;;;;;;;17.41;100.00;100762.47;5052654;28;20196;-76
2021/09/25 06:40:46;;;;;;;21.27;16.35;;;;;;;17.39;100.00;100750.97;5034565;28;20596;-74
2021/09/25 06:43:14;;;;;;;25.80;17.00;;;;;;;17.39;100.00;100745.50;5037493;28;20221;-74
2021/09/25 06:45:44;;;;;;;23.08;17.15;;;;;;;17.21;100.00;100753.13;5018030;28;20621;-73
2021/09/25 06:48:16;;;;;;;25.10;17.35;;;;;;;17.26;100.00;100751.06;5077461;23;20738;-72
2021/09/25 06:50:45;;;;;;;24.73;18.15;;;;;;;17.21;100.00;100762.16;5021259;28;20261;-74
2021/09/25 06:53:10;;;;;;;25.45;18.75;;;;;;;17.13;100.00;100757.41;5073396;28;20205;-76
2021/09/25 06:55:39;;;;;;;24.98;18.85;;;;;;;17.21;100.00;100761.38;5047601;28;20684;-74
2021/09/25 06:58:06;;;;;;;29.67;19.42;;;;;;;16.94;100.00;100762.28;5061232;28;20213;-74
2021/09/25 07:00:32;;;;;;;30.10;19.63;;;;;;;17.07;100.00;100766.09;5040731;28;20218;-75
2021/09/25 07:03:00;;;;;;;29.48;19.75;;;;;;;17.04;100.00;100767.50;5033931;28;20663;-74
2021/09/25 07:05:30;;;;;;;31.20;19.95;;;;;;;17.01;100.00;100767.31;5030792;28;21932;-74
2021/09/25 07:07:58;;;;;;;33.67;20.98;;;;;;;17.08;100.00;100763.03;5017566;28;20253;-74
2021/09/25 07:10:24;;;;;;;33.22;22.15;;;;;;;17.20;100.00;100759.75;5021744;28;20225;-74
2021/09/25 07:12:49;;;;;;;28.98;19.95;;;;;;;17.22;100.00;100763.00;5045173;28;20195;-75
2021/09/25 07:15:15;;;;;;;31.50;20.45;;;;;;;17.20;100.00;100765.25;5044576;28;20187;-73
2021/09/25 07:17:43;;;;;;;28.00;20.77;;;;;;;17.21;100.00;100777.84;5065249;28;20194;-74
2021/09/25 07:20:11;;;;;;;29.02;20.23;;;;;;;17.27;100.00;100776.59;5020556;28;20270;-74
2021/09/25 07:22:37;;;;;;;33.65;22.25;;;;;;;17.24;100.00;100777.22;5037835;28;20217;-73
2021/09/25 07:25:03;;;;;;;31.92;20.70;;;;;;;17.19;100.00;100780.09;5054116;28;20830;-73
2021/09/25 07:27:28;;;;;;;29.67;20.52;;;;;;;17.24;100.00;100782.72;5038200;28;20240;-74
2021/09/25 07:29:56;;;;;;;32.45;21.92;;;;;;;17.40;100.00;100782.03;5065591;28;20268;-74
2021/09/25 07:32:27;;;;;;;32.67;21.50;;;;;;;17.26;100.00;100797.75;5066890;28;20234;-74
2021/09/25 07:34:53;;;;;;;32.75;22.08;;;;;;;17.27;100.00;100798.56;5037288;28;20272;-74
2021/09/25 07:37:21;;;;;;;29.50;22.05;;;;;;;17.31;100.00;100788.56;5045599;28;20230;-74
2021/09/25 07:39:47;;;;;;;32.05;22.30;;;;;;;17.31;100.00;100794.06;5059065;28;20187;-73
2021/09/25 07:42:15;;;;;;;29.50;21.02;;;;;;;17.38;100.00;100801.56;5034926;28;20569;-74
2021/09/25 07:44:41;;;;;;;31.55;21.15;;;;;;;17.56;100.00;100794.22;5038282;28;20186;-75
2021/09/25 07:47:09;;;;;;;30.05;22.05;;;;;;;17.57;100.00;100802.16;5052671;28;20566;-74
2021/09/25 07:49:35;;;;;;;25.65;20.48;;;;;;;17.57;100.00;100812.34;5055213;28;20280;-74
2021/09/25 07:52:01;;;;;;;27.27;21.63;;;;;;;17.68;100.00;100814.50;5031868;28;20191;-73
2021/09/25 07:54:26;;;;;;;30.52;20.98;;;;;;;17.83;100.00;100830.59;5030005;28;20191;-73
2021/09/25 07:56:52;;;;;;;28.10;21.35;;;;;;;17.83;100.00;100828.66;5036395;28;20218;-74
2021/09/25 07:59:18;;;;;;;26.25;21.27;;;;;;;17.73;100.00;100830.88;5021006;28;20237;-74
2021/09/25 08:01:43;;;;;;;27.63;20.52;;;;;;;17.65;100.00;100828.06;5046176;28;20210;-75
2021/09/25 08:04:14;;;;;;;27.95;20.63;;;;;;;17.63;100.00;100828.38;5045574;28;20186;-75
2021/09/25 08:06:40;;;;;;;29.23;21.20;;;;;;;17.93;100.00;100836.66;5036957;28;20203;-75
2021/09/25 08:09:10;;;;;;;27.08;20.67;;;;;;;17.92;100.00;100839.72;5040035;28;20179;-74
2021/09/25 08:11:38;;;;;;;27.25;20.63;;;;;;;17.83;100.00;100842.41;5035238;28;20273;-75
2021/09/25 08:14:04;;;;;;;29.10;21.05;;;;;;;17.96;100.00;100840.69;5019591;28;20187;-76
2021/09/25 08:16:31;;;;;;;27.45;19.98;;;;;;;17.97;100.00;100843.13;5034444;28;20198;-74
2021/09/25 08:18:59;;;;;;;24.23;20.10;;;;;;;17.97;100.00;100845.06;5048338;28;20175;-75
2021/09/25 08:21:25;;;;;;;24.52;19.23;;;;;;;18.06;100.00;100848.66;5038181;28;20233;-75
2021/09/25 08:23:51;;;;;;;22.42;19.63;;;;;;;18.18;100.00;100850.53;5030121;28;20183;-76
2021/09/25 08:26:16;;;;;;;23.08;19.23;;;;;;;18.22;100.00;100846.03;5037417;28;20262;-76
2021/09/25 08:28:47;;;;;;;27.83;18.77;;;;;;;18.18;100.00;100866.22;5061702;28;20187;-76
2021/09/25 08:31:18;;;;;;;27.27;19.02;;;;;;;18.24;100.00;100870.44;5035146;28;20183;-75
2021/09/25 08:33:44;;;;;;;23.88;18.25;;;;;;;18.17;100.00;100875.63;5058580;28;20744;-76
2021/09/25 08:36:09;;;;;;;20.75;17.15;;;;;;;18.26;100.00;100870.94;5016956;28;20203;-77
2021/09/25 08:38:35;;;;;;;23.50;17.10;;;;;;;18.33;100.00;100874.06;5026883;28;20709;-77
2021/09/25 08:41:03;;;;;;;24.33;17.52;;;;;;;18.34;100.00;100870.97;5055891;28;20227;-76
2021/09/25 08:43:31;;;;;;;23.50;17.80;;;;;;;18.38;100.00;100871.16;5052034;28;20240;-75
2021/09/25 08:46:01;;;;;;;23.63;17.08;;;;;;;18.42;100.00;100872.94;5035508;28;20269;-76
2021/09/25 08:48:30;;;;;;;21.35;16.88;;;;;;;18.45;100.00;100872.31;5036023;28;20211;-77
2021/09/25 08:50:56;;;;;;;21.67;16.58;;;;;;;18.39;100.00;100883.81;5071359;28;20194;-76
2021/09/25 08:53:23;;;;;;;21.63;17.23;;;;;;;18.41;100.00;100879.59;5053808;28;20179;-76
2021/09/25 08:55:51;;;;;;;17.90;16.00;;;;;;;18.48;100.00;100879.13;5021661;28;20277;-76
2021/09/25 08:58:21;;;;;;;20.38;16.60;;;;;;;18.52;100.00;100880.94;5040437;28;20314;-77
2021/09/25 09:00:48;;;;;;;21.17;17.15;;;;;;;18.64;100.00;100875.63;5057537;28;20194;-77
2021/09/25 09:03:35;;;;;;;20.08;17.25;;;;;;;18.71;100.00;100876.75;5040472;28;20175;-76
2021/09/25 09:06:21;;;;;;;23.17;17.30;;;;;;;18.88;100.00;100877.63;5037159;28;20186;-76
2021/09/25 09:08:52;;;;;;;21.08;16.90;;;;;;;19.08;100.00;100870.72;5041997;28;20556;-77
2021/09/25 09:11:19;;;;;;;17.77;15.35;;;;;;;19.17;100.00;100869.56;5057449;28;20266;-77
2021/09/25 09:13:46;;;;;;;16.25;14.48;;;;;;;19.25;100.00;100871.56;5053385;28;20183;-76
2021/09/25 09:16:12;;;;;;;17.63;14.40;;;;;;;19.24;100.00;100880.94;5021070;28;20301;-77
2021/09/25 09:18:39;;;;;;;20.25;14.20;;;;;;;19.30;100.00;100868.59;5055777;28;20193;-77
2021/09/25 09:21:11;;;;;;;20.88;13.63;;;;;;;19.43;100.00;100876.72;5039373;28;20193;-78
2021/09/25 09:23:48;;;;;;;17.65;13.95;;;;;;;19.50;100.00;100876.22;5058653;28;20277;-78
2021/09/25 09:26:16;;;;;;;15.43;12.70;;;;;;;19.56;100.00;100883.19;5025200;28;20179;-77
2021/09/25 09:28:42;;;;;;;15.02;12.85;;;;;;;19.17;100.00;100874.28;5058478;28;20203;-77
2021/09/25 09:31:10;;;;;;;14.85;13.23;;;;;;;19.55;100.00;100884.34;5043254;28;20199;-76
2021/09/25 09:33:38;;;;;;;16.20;12.75;;;;;;;19.42;100.00;100874.31;5075412;28;20175;-76
2021/09/25 09:36:20;;;;;;;14.55;12.80;;;;;;;19.66;100.00;100883.69;5040029;28;20285;-78
2021/09/25 09:38:53;;;;;;;13.85;12.43;;;;;;;19.78;100.00;100875.56;5040229;28;20553;-79
2021/09/25 09:41:48;;;;;;;14.27;11.70;;;;;;;19.65;100.00;100879.31;5041887;28;20187;-76
2021/09/25 09:44:22;;;;;;;12.73;11.38;;;;;;;19.93;100.00;100873.13;5041200;28;20270;-77
2021/09/25 09:46:53;;;;;;;12.80;10.75;;;;;;;20.02;100.00;100871.16;5074867;28;20210;-77
2021/09/25 09:49:23;;;;;;;13.70;11.23;;;;;;;20.20;100.00;100867.19;5055663;28;20175;-77
2021/09/25 09:51:49;;;;;;;12.63;11.00;;;;;;;20.19;100.00;100865.56;5041557;28;20179;-76
2021/09/25 09:54:23;;;;;;;11.93;10.45;;;;;;;20.20;100.00;100875.47;5050447;28;20174;-77
2021/09/25 09:56:50;;;;;;;13.38;10.65;;;;;;;20.34;100.00;100881.59;5088624;28;20212;-74
2021/09/25 09:59:16;;;;;;;12.18;10.32;;;;;;;20.63;100.00;100877.75;5077460;28;20178;-75
2021/09/25 10:01:45;;;;;;;11.68;10.45;;;;;;;20.77;100.00;100877.50;5062646;28;20260;-76
2021/09/25 10:04:11;;;;;;;12.32;9.48;;;;;;;21.04;100.00;100877.81;5025512;28;20635;-77
2021/09/25 10:06:37;;;;;;;11.15;9.90;;;;;;;21.10;100.00;100868.16;5066255;28;20182;-76
2021/09/25 10:09:16;;;;;;;10.23;8.40;;;;;;;21.14;100.00;100877.44;5063289;28;20213;-77
2021/09/25 10:11:47;;;;;;;9.48;8.32;;;;;;;21.16;100.00;100880.66;5042663;28;20210;-76
2021/09/25 10:14:15;;;;;;;13.43;8.70;;;;;;;21.81;100.00;100877.69;5064279;28;20203;-76
2021/09/25 10:16:46;;;;;;;10.07;8.38;;;;;;;21.47;100.00;100870.84;5041966;28;20214;-77
2021/09/25 10:19:14;;;;;;;8.52;7.55;;;;;;;21.74;100.00;100871.88;5051932;28;20312;-79
2021/09/25 10:21:42;;;;;;;10.15;7.90;;;;;;;21.60;100.00;100873.31;5039190;28;20534;-75
2021/09/25 10:24:33;;;;;;;11.82;8.00;;;;;;;22.14;100.00;100870.97;5034890;28;20210;-74
2021/09/25 10:27:03;;;;;;;9.20;7.97;;;;;;;21.60;100.00;100876.09;5037067;28;20211;-74
2021/09/25 10:29:29;;;;;;;8.95;7.30;;;;;;;21.80;100.00;100875.25;5053985;28;20178;-74
2021/09/25 10:32:19;;;;;;;8.20;6.88;;;;;;;21.96;100.00;100877.03;5021701;28;20560;-74
2021/09/25 10:35:18;;;;;;;8.25;6.85;;;;;;;21.96;100.00;100884.50;5038878;28;20199;-76
2021/09/25 10:37:48;;;;;;;8.85;6.80;;;;;;;21.68;100.00;100895.38;5074611;28;20209;-75
2021/09/25 10:40:22;;;;;;;7.10;6.40;;;;;;;21.20;100.00;100901.75;5052507;28;20183;-74
2021/09/25 10:42:51;;;;;;;7.40;6.35;;;;;;;21.12;100.00;100890.78;5038595;28;20179;-76
2021/09/25 10:45:37;;;;;;;8.32;6.10;;;;;;;21.38;100.00;100889.44;5027828;28;20171;-75
2021/09/25 10:48:06;;;;;;;8.10;6.70;;;;;;;21.53;100.00;100884.13;5054220;28;20214;-75
2021/09/25 10:50:33;;;;;;;7.85;6.82;;;;;;;21.83;100.00;100875.38;5024259;28;20245;-75
2021/09/25 10:53:07;;;;;;;9.02;6.80;;;;;;;21.92;100.00;100883.56;5022072;28;20182;-76
2021/09/25 10:55:32;;;;;;;9.07;6.57;;;;;;;21.92;100.00;100878.84;5054099;28;20206;-77
2021/09/25 10:58:28;;;;;;;8.68;5.90;;;;;;;22.06;100.00;100882.13;5037700;28;20199;-76
2021/09/25 11:01:09;;;;;;;7.82;6.07;;;;;;;22.13;100.00;100880.41;5074014;28;20210;-73
2021/09/25 11:03:41;;;;;;;9.07;5.63;;;;;;;22.65;100.00;100884.19;5057737;28;20185;-75
2021/09/25 11:06:37;;;;;;;6.28;5.65;;;;;;;22.69;100.00;100882.34;5053558;28;20196;-75